sensor_id;sensor_type;location;lat;lon;timestamp;pressure;altitude;pressure_sealevel;temperature;humidity
48553;BME280;34335;51.566;6.994;2022-10-31T00:01:28;101538.34;;;14.20;86.25
48553;BME280;34335;51.566;6.994;2022-10-31T00:03:53;101540.13;;;14.15;86.06
48553;BME280;34335;51.566;6.994;2022-10-31T00:06:20;101543.63;;;14.11;85.91
48553;BME280;34335;51.566;6.994;2022-10-31T00:08:47;101538.41;;;14.08;86.05
48553;BME280;34335;51.566;6.994;2022-10-31T00:11:12;101538.41;;;14.05;85.94
48553;BME280;34335;51.566;6.994;2022-10-31T00:13:38;101537.53;;;13.99;85.91
48553;BME280;34335;51.566;6.994;2022-10-31T00:16:04;101526.22;;;13.94;86.14
48553;BME280;34335;51.566;6.994;2022-10-31T00:18:30;101528.84;;;13.93;86.38
48553;BME280;34335;51.566;6.994;2022-10-31T00:21:02;101530.59;;;13.98;88.10
48553;BME280;34335;51.566;6.994;2022-10-31T00:23:27;101533.19;;;13.98;86.54
48553;BME280;34335;51.566;6.994;2022-10-31T00:25:53;101540.16;;;13.99;86.48
48553;BME280;34335;51.566;6.994;2022-10-31T00:28:18;101521.00;;;13.88;86.64
48553;BME280;34335;51.566;6.994;2022-10-31T00:30:43;101523.59;;;13.94;90.62
48553;BME280;34335;51.566;6.994;2022-10-31T00:33:08;101533.22;;;13.83;86.34
48553;BME280;34335;51.566;6.994;2022-10-31T00:35:34;101523.63;;;13.77;86.86
48553;BME280;34335;51.566;6.994;2022-10-31T00:37:59;101511.44;;;13.73;86.66
48553;BME280;34335;51.566;6.994;2022-10-31T00:40:24;101523.59;;;13.94;93.69
48553;BME280;34335;51.566;6.994;2022-10-31T00:42:50;101525.38;;;13.74;87.08
48553;BME280;34335;51.566;6.994;2022-10-31T00:45:15;101532.38;;;13.68;86.69
48553;BME280;34335;51.566;6.994;2022-10-31T00:47:40;101543.69;;;13.64;86.77
48553;BME280;34335;51.566;6.994;2022-10-31T00:50:07;101544.53;;;13.63;86.79
48553;BME280;34335;51.566;6.994;2022-10-31T00:52:32;101528.88;;;13.60;86.75
48553;BME280;34335;51.566;6.994;2022-10-31T00:54:58;101531.50;;;13.55;86.85
48553;BME280;34335;51.566;6.994;2022-10-31T00:57:23;101528.88;;;13.55;87.17
48553;BME280;34335;51.566;6.994;2022-10-31T00:59:48;101528.00;;;13.50;87.43
48553;BME280;34335;51.566;6.994;2022-10-31T01:02:14;101523.66;;;13.46;88.85
48553;BME280;34335;51.566;6.994;2022-10-31T01:04:39;101521.03;;;13.43;87.53
48553;BME280;34335;51.566;6.994;2022-10-31T01:07:04;101541.94;;;13.42;87.19
48553;BME280;34335;51.566;6.994;2022-10-31T01:09:30;101536.72;;;13.45;89.97
48553;BME280;34335;51.566;6.994;2022-10-31T01:11:55;101529.72;;;13.39;87.81
48553;BME280;34335;51.566;6.994;2022-10-31T01:14:20;101532.31;;;13.37;87.91
48553;BME280;34335;51.566;6.994;2022-10-31T01:16:45;101548.03;;;13.75;97.14
48553;BME280;34335;51.566;6.994;2022-10-31T01:19:10;101537.59;;;13.42;88.71
48553;BME280;34335;51.566;6.994;2022-10-31T01:21:36;101532.38;;;13.40;89.37
48553;BME280;34335;51.566;6.994;2022-10-31T01:24:01;101525.34;;;13.36;87.68
48553;BME280;34335;51.566;6.994;2022-10-31T01:26:31;101526.22;;;13.31;87.64
48553;BME280;34335;51.566;6.994;2022-10-31T01:29:02;101533.16;;;13.29;91.98
48553;BME280;34335;51.566;6.994;2022-10-31T01:31:30;101530.56;;;13.29;88.51
48553;BME280;34335;51.566;6.994;2022-10-31T01:33:58;101532.31;;;13.30;91.11
48553;BME280;34335;51.566;6.994;2022-10-31T01:36:29;101541.88;;;13.26;88.20
48553;BME280;34335;51.566;6.994;2022-10-31T01:38:58;101537.53;;;13.22;88.30
48553;BME280;34335;51.566;6.994;2022-10-31T01:41:26;101540.16;;;13.17;88.16
48553;BME280;34335;51.566;6.994;2022-10-31T01:44:01;101534.03;;;13.14;88.35
48553;BME280;34335;51.566;6.994;2022-10-31T01:46:33;101527.06;;;13.09;88.12
48553;BME280;34335;51.566;6.994;2022-10-31T01:49:02;101525.31;;;13.05;88.32
48553;BME280;34335;51.566;6.994;2022-10-31T01:51:33;101523.56;;;13.04;88.84
48553;BME280;34335;51.566;6.994;2022-10-31T01:54:03;101526.19;;;13.12;90.64
48553;BME280;34335;51.566;6.994;2022-10-31T01:56:29;101529.69;;;13.09;89.62
48553;BME280;34335;51.566;6.994;2022-10-31T01:58:56;101528.81;;;13.06;89.17
48553;BME280;34335;51.566;6.994;2022-10-31T02:01:24;101534.91;;;13.09;89.51
48553;BME280;34335;51.566;6.994;2022-10-31T02:03:49;101529.72;;;13.17;91.20
48553;BME280;34335;51.566;6.994;2022-10-31T02:06:27;101529.66;;;13.03;89.08
48553;BME280;34335;51.566;6.994;2022-10-31T02:08:57;101524.44;;;12.96;88.62
48553;BME280;34335;51.566;6.994;2022-10-31T02:11:23;101520.97;;;13.09;91.51
48553;BME280;34335;51.566;6.994;2022-10-31T02:13:48;101520.09;;;12.93;88.96
48553;BME280;34335;51.566;6.994;2022-10-31T02:16:14;101518.31;;;12.89;88.88
48553;BME280;34335;51.566;6.994;2022-10-31T02:18:39;101511.34;;;12.88;89.39
48553;BME280;34335;51.566;6.994;2022-10-31T02:21:19;101508.72;;;12.80;88.88
48553;BME280;34335;51.566;6.994;2022-10-31T02:27:09;101512.16;;;12.63;92.59
48553;BME280;34335;51.566;6.994;2022-10-31T02:32:27;101517.38;;;12.62;90.08
48553;BME280;34335;51.566;6.994;2022-10-31T02:35:05;101523.47;;;12.61;90.43
48553;BME280;34335;51.566;6.994;2022-10-31T02:37:41;101513.88;;;12.61;89.67
48553;BME280;34335;51.566;6.994;2022-10-31T02:40:39;101518.22;;;12.58;89.79
48553;BME280;34335;51.566;6.994;2022-10-31T02:43:18;101516.44;;;12.52;89.56
48553;BME280;34335;51.566;6.994;2022-10-31T02:45:50;101518.22;;;12.50;89.36
48553;BME280;34335;51.566;6.994;2022-10-31T02:48:24;101512.97;;;12.49;89.12
48553;BME280;34335;51.566;6.994;2022-10-31T02:50:57;101510.34;;;12.42;89.35
48553;BME280;34335;51.566;6.994;2022-10-31T02:53:23;101513.81;;;12.41;89.52
48553;BME280;34335;51.566;6.994;2022-10-31T02:58:36;101503.41;;;12.47;90.46
48553;BME280;34335;51.566;6.994;2022-10-31T03:01:13;101510.31;;;12.41;89.54
48553;BME280;34335;51.566;6.994;2022-10-31T03:04:07;101505.09;;;12.38;89.18
48553;BME280;34335;51.566;6.994;2022-10-31T03:15:04;101512.84;;;12.21;89.29
48553;BME280;34335;51.566;6.994;2022-10-31T03:20:10;101518.91;;;12.15;89.26
48553;BME280;34335;51.566;6.994;2022-10-31T03:22:39;101518.88;;;12.12;89.35
48553;BME280;34335;51.566;6.994;2022-10-31T03:25:06;101517.19;;;12.23;92.17
48553;BME280;34335;51.566;6.994;2022-10-31T03:27:34;101524.09;;;12.10;89.89
48553;BME280;34335;51.566;6.994;2022-10-31T03:30:03;101519.72;;;12.06;89.69
48553;BME280;34335;51.566;6.994;2022-10-31T03:32:43;101515.44;;;12.14;91.92
48553;BME280;34335;51.566;6.994;2022-10-31T03:35:11;101515.44;;;12.14;90.48
48553;BME280;34335;51.566;6.994;2022-10-31T03:37:39;101515.34;;;12.04;94.75
48553;BME280;34335;51.566;6.994;2022-10-31T03:40:07;101517.88;;;11.93;90.65
48553;BME280;34335;51.566;6.994;2022-10-31T03:42:37;101521.34;;;11.92;90.29
48553;BME280;34335;51.566;6.994;2022-10-31T03:45:06;101517.84;;;11.87;90.07
48553;BME280;34335;51.566;6.994;2022-10-31T03:47:34;101516.22;;;12.01;92.58
48553;BME280;34335;51.566;6.994;2022-10-31T03:50:01;101518.78;;;11.98;92.51
48553;BME280;34335;51.566;6.994;2022-10-31T03:52:37;101511.78;;;11.94;91.44
48553;BME280;34335;51.566;6.994;2022-10-31T03:55:15;101512.59;;;11.82;90.12
48553;BME280;34335;51.566;6.994;2022-10-31T03:58:00;101527.31;;;11.77;89.92
48553;BME280;34335;51.566;6.994;2022-10-31T04:00:29;101524.66;;;11.72;89.84
48553;BME280;34335;51.566;6.994;2022-10-31T04:03:07;101524.63;;;11.66;89.74
48553;BME280;34335;51.566;6.994;2022-10-31T04:05:35;101524.63;;;11.66;90.24
48553;BME280;34335;51.566;6.994;2022-10-31T04:08:05;101521.09;;;11.61;90.10
48553;BME280;34335;51.566;6.994;2022-10-31T04:10:32;101520.25;;;11.59;89.99
48553;BME280;34335;51.566;6.994;2022-10-31T04:13:07;101525.50;;;11.66;91.83
48553;BME280;34335;51.566;6.994;2022-10-31T04:15:34;101523.75;;;11.64;90.57
48553;BME280;34335;51.566;6.994;2022-10-31T04:18:03;101521.22;;;11.73;93.17
48553;BME280;34335;51.566;6.994;2022-10-31T04:20:32;101522.03;;;11.66;92.61
48553;BME280;34335;51.566;6.994;2022-10-31T04:22:58;101514.97;;;11.51;90.38
48553;BME280;34335;51.566;6.994;2022-10-31T04:25:24;101518.38;;;11.45;90.15
48553;BME280;34335;51.566;6.994;2022-10-31T04:27:49;101514.00;;;11.40;90.58
48553;BME280;34335;51.566;6.994;2022-10-31T04:30:14;101515.72;;;11.36;90.56
48553;BME280;34335;51.566;6.994;2022-10-31T04:32:39;101507.00;;;11.34;90.31
48553;BME280;34335;51.566;6.994;2022-10-31T04:35:05;101494.84;;;11.33;90.79
48553;BME280;34335;51.566;6.994;2022-10-31T04:37:30;101503.63;;;11.44;92.56
48553;BME280;34335;51.566;6.994;2022-10-31T04:39:55;101507.28;;;11.68;95.55
48553;BME280;34335;51.566;6.994;2022-10-31T04:42:21;101505.41;;;11.51;94.56
48553;BME280;34335;51.566;6.994;2022-10-31T04:44:46;101506.31;;;11.57;93.61
48553;BME280;34335;51.566;6.994;2022-10-31T04:47:11;101504.50;;;11.48;91.61
48553;BME280;34335;51.566;6.994;2022-10-31T04:49:37;101496.63;;;11.40;91.84
48553;BME280;34335;51.566;6.994;2022-10-31T04:52:02;101500.25;;;11.61;95.07
48553;BME280;34335;51.566;6.994;2022-10-31T04:54:27;101499.44;;;11.65;94.16
48553;BME280;34335;51.566;6.994;2022-10-31T04:56:52;101485.69;;;11.89;96.34
48553;BME280;34335;51.566;6.994;2022-10-31T04:59:18;101501.13;;;11.58;91.69
48553;BME280;34335;51.566;6.994;2022-10-31T05:01:43;101495.00;;;11.54;92.17
48553;BME280;34335;51.566;6.994;2022-10-31T05:04:08;101490.63;;;11.50;91.70
48553;BME280;34335;51.566;6.994;2022-10-31T05:06:33;101491.63;;;11.65;98.53
48553;BME280;34335;51.566;6.994;2022-10-31T05:08:59;101501.16;;;11.61;100.00
48553;BME280;34335;51.566;6.994;2022-10-31T05:11:24;101502.84;;;11.56;97.52
48553;BME280;34335;51.566;6.994;2022-10-31T05:13:49;101502.75;;;11.45;94.59
48553;BME280;34335;51.566;6.994;2022-10-31T05:16:14;101496.66;;;11.45;93.59
48553;BME280;34335;51.566;6.994;2022-10-31T05:18:40;101496.13;;;11.89;100.00
48553;BME280;34335;51.566;6.994;2022-10-31T05:21:05;101495.34;;;12.01;100.00
48553;BME280;34335;51.566;6.994;2022-10-31T05:23:30;101488.13;;;11.61;98.61
48553;BME280;34335;51.566;6.994;2022-10-31T05:25:55;101490.53;;;11.36;94.15
48553;BME280;34335;51.566;6.994;2022-10-31T05:28:21;101479.16;;;11.28;94.45
48553;BME280;34335;51.566;6.994;2022-10-31T05:30:46;101470.50;;;11.28;94.87
48553;BME280;34335;51.566;6.994;2022-10-31T05:33:11;101471.34;;;11.27;94.50
48553;BME280;34335;51.566;6.994;2022-10-31T05:35:37;101474.81;;;11.24;93.91
48553;BME280;34335;51.566;6.994;2022-10-31T05:38:04;101474.81;;;11.24;93.64
48553;BME280;34335;51.566;6.994;2022-10-31T05:40:29;101467.03;;;11.32;94.02
48553;BME280;34335;51.566;6.994;2022-10-31T05:42:56;101465.28;;;11.31;93.97
48553;BME280;34335;51.566;6.994;2022-10-31T05:45:23;101455.91;;;11.50;98.63
48553;BME280;34335;51.566;6.994;2022-10-31T05:47:53;101458.41;;;11.37;99.46
48553;BME280;34335;51.566;6.994;2022-10-31T05:50:19;101469.69;;;11.35;96.18
48553;BME280;34335;51.566;6.994;2022-10-31T05:52:44;101472.25;;;11.32;95.72
48553;BME280;34335;51.566;6.994;2022-10-31T05:55:10;101474.94;;;11.38;96.55
48553;BME280;34335;51.566;6.994;2022-10-31T05:57:35;101468.88;;;11.42;96.92
48553;BME280;34335;51.566;6.994;2022-10-31T06:00:00;101473.22;;;11.43;100.00
48553;BME280;34335;51.566;6.994;2022-10-31T06:02:26;101481.03;;;11.43;100.00
48553;BME280;34335;51.566;6.994;2022-10-31T06:04:52;101466.16;;;11.25;97.43
48553;BME280;34335;51.566;6.994;2022-10-31T06:07:17;101474.00;;;11.30;97.29
48553;BME280;34335;51.566;6.994;2022-10-31T06:09:43;101471.47;;;11.41;97.72
48553;BME280;34335;51.566;6.994;2022-10-31T06:12:08;101468.78;;;11.33;97.38
48553;BME280;34335;51.566;6.994;2022-10-31T06:14:33;101467.94;;;11.35;96.50
48553;BME280;34335;51.566;6.994;2022-10-31T06:16:58;101459.31;;;11.40;96.03
48553;BME280;34335;51.566;6.994;2022-10-31T06:19:24;101472.31;;;11.38;95.33
48553;BME280;34335;51.566;6.994;2022-10-31T06:21:49;101475.75;;;11.34;94.89
48553;BME280;34335;51.566;6.994;2022-10-31T06:24:14;101476.56;;;11.28;94.48
48553;BME280;34335;51.566;6.994;2022-10-31T06:26:40;101475.75;;;11.32;94.63
48553;BME280;34335;51.566;6.994;2022-10-31T06:29:05;101473.97;;;11.27;94.33
48553;BME280;34335;51.566;6.994;2022-10-31T06:31:30;101468.69;;;11.19;94.25
48553;BME280;34335;51.566;6.994;2022-10-31T06:33:56;101476.44;;;11.13;93.99
48553;BME280;34335;51.566;6.994;2022-10-31T06:36:21;101479.91;;;11.12;94.16
48553;BME280;34335;51.566;6.994;2022-10-31T06:38:46;101479.06;;;11.16;94.56
48553;BME280;34335;51.566;6.994;2022-10-31T06:41:12;101475.78;;;11.40;97.80
48553;BME280;34335;51.566;6.994;2022-10-31T06:43:37;101482.75;;;11.41;99.37
48553;BME280;34335;51.566;6.994;2022-10-31T06:46:03;101476.56;;;11.28;95.64
48553;BME280;34335;51.566;6.994;2022-10-31T06:48:29;101480.84;;;11.20;94.54
48553;BME280;34335;51.566;6.994;2022-10-31T06:51:01;101482.59;;;11.19;94.03
48553;BME280;34335;51.566;6.994;2022-10-31T06:53:27;101485.16;;;11.16;94.14
48553;BME280;34335;51.566;6.994;2022-10-31T06:55:55;101485.16;;;11.15;94.54
48553;BME280;34335;51.566;6.994;2022-10-31T06:58:20;101483.59;;;11.40;98.12
48553;BME280;34335;51.566;6.994;2022-10-31T07:00:46;101487.13;;;11.44;100.00
48553;BME280;34335;51.566;6.994;2022-10-31T07:03:12;101485.59;;;11.72;100.00
48553;BME280;34335;51.566;6.994;2022-10-31T07:05:38;101492.56;;;11.76;100.00
48553;BME280;34335;51.566;6.994;2022-10-31T07:08:06;101479.56;;;11.82;100.00
48553;BME280;34335;51.566;6.994;2022-10-31T07:10:33;101490.72;;;11.61;100.00
48553;BME280;34335;51.566;6.994;2022-10-31T07:13:02;101486.56;;;11.87;100.00
48553;BME280;34335;51.566;6.994;2022-10-31T07:15:29;101495.09;;;11.62;100.00
48553;BME280;34335;51.566;6.994;2022-10-31T07:18:02;101494.19;;;11.62;99.58
48553;BME280;34335;51.566;6.994;2022-10-31T07:20:28;101493.56;;;11.97;100.00
48553;BME280;34335;51.566;6.994;2022-10-31T07:22:53;101496.25;;;12.05;100.00
48553;BME280;34335;51.566;6.994;2022-10-31T07:25:19;101499.63;;;11.94;100.00
48553;BME280;34335;51.566;6.994;2022-10-31T07:27:44;101505.03;;;12.21;100.00
48553;BME280;34335;51.566;6.994;2022-10-31T07:30:11;101503.06;;;11.85;100.00
48553;BME280;34335;51.566;6.994;2022-10-31T07:32:41;101499.47;;;11.68;98.50
48553;BME280;34335;51.566;6.994;2022-10-31T07:35:12;101499.41;;;11.62;99.79
48553;BME280;34335;51.566;6.994;2022-10-31T07:37:38;101495.38;;;12.04;100.00
48553;BME280;34335;51.566;6.994;2022-10-31T07:40:04;101489.28;;;12.02;100.00
48553;BME280;34335;51.566;6.994;2022-10-31T07:42:37;101487.41;;;11.89;100.00
48553;BME280;34335;51.566;6.994;2022-10-31T07:45:04;101487.53;;;12.03;100.00
48553;BME280;34335;51.566;6.994;2022-10-31T07:47:40;101486.78;;;12.25;100.00
48553;BME280;34335;51.566;6.994;2022-10-31T07:50:06;101490.22;;;12.20;100.00
48553;BME280;34335;51.566;6.994;2022-10-31T07:52:32;101481.59;;;12.30;100.00
48553;BME280;34335;51.566;6.994;2022-10-31T07:54:57;101481.63;;;12.33;100.00
48553;BME280;34335;51.566;6.994;2022-10-31T07:57:22;101483.28;;;12.23;100.00
48553;BME280;34335;51.566;6.994;2022-10-31T07:59:48;101483.13;;;11.95;100.00
48553;BME280;34335;51.566;6.994;2022-10-31T08:02:13;101488.19;;;11.72;100.00
48553;BME280;34335;51.566;6.994;2022-10-31T08:04:38;101481.34;;;11.90;100.00
48553;BME280;34335;51.566;6.994;2022-10-31T08:07:04;101489.97;;;11.76;100.00
48553;BME280;34335;51.566;6.994;2022-10-31T08:09:29;101493.50;;;11.84;100.00
48553;BME280;34335;51.566;6.994;2022-10-31T08:11:54;101486.91;;;12.52;100.00
48553;BME280;34335;51.566;6.994;2022-10-31T08:14:20;101492.16;;;12.61;100.00
48553;BME280;34335;51.566;6.994;2022-10-31T08:16:45;101489.56;;;12.69;100.00
48553;BME280;34335;51.566;6.994;2022-10-31T08:19:11;101485.22;;;12.75;100.00
48553;BME280;34335;51.566;6.994;2022-10-31T08:21:36;101489.50;;;12.45;100.00
48553;BME280;34335;51.566;6.994;2022-10-31T08:24:01;101489.53;;;12.62;100.00
48553;BME280;34335;51.566;6.994;2022-10-31T08:26:27;101495.66;;;12.75;100.00
48553;BME280;34335;51.566;6.994;2022-10-31T08:28:52;101502.69;;;12.98;100.00
48553;BME280;34335;51.566;6.994;2022-10-31T08:31:19;101496.59;;;13.08;100.00
48553;BME280;34335;51.566;6.994;2022-10-31T08:33:45;101499.19;;;12.96;100.00
48553;BME280;34335;51.566;6.994;2022-10-31T08:36:10;101499.22;;;13.02;100.00
48553;BME280;34335;51.566;6.994;2022-10-31T08:38:35;101496.59;;;12.99;100.00
48553;BME280;34335;51.566;6.994;2022-10-31T08:41:01;101488.72;;;12.81;100.00
48553;BME280;34335;51.566;6.994;2022-10-31T08:43:26;101497.47;;;12.97;100.00
48553;BME280;34335;51.566;6.994;2022-10-31T08:45:51;101487.03;;;13.11;100.00
48553;BME280;34335;51.566;6.994;2022-10-31T08:48:19;101487.84;;;12.94;100.00
48553;BME280;34335;51.566;6.994;2022-10-31T08:50:45;101487.81;;;12.74;100.00
48553;BME280;34335;51.566;6.994;2022-10-31T08:53:13;101481.75;;;12.73;100.00
48553;BME280;34335;51.566;6.994;2022-10-31T08:55:39;101476.44;;;12.45;100.00
48553;BME280;34335;51.566;6.994;2022-10-31T08:58:06;101471.19;;;12.39;100.00
48553;BME280;34335;51.566;6.994;2022-10-31T09:00:33;101464.25;;;12.41;100.00
48553;BME280;34335;51.566;6.994;2022-10-31T09:03:08;101465.13;;;12.51;100.00
48553;BME280;34335;51.566;6.994;2022-10-31T09:05:34;101460.03;;;13.02;100.00
48553;BME280;34335;51.566;6.994;2022-10-31T09:08:01;101466.13;;;12.92;100.00
48553;BME280;34335;51.566;6.994;2022-10-31T09:10:27;101463.53;;;13.26;100.00
48553;BME280;34335;51.566;6.994;2022-10-31T09:12:59;101462.66;;;13.24;100.00
48553;BME280;34335;51.566;6.994;2022-10-31T09:15:27;101459.19;;;13.22;100.00
48553;BME280;34335;51.566;6.994;2022-10-31T09:17:52;101457.44;;;13.12;100.00
48553;BME280;34335;51.566;6.994;2022-10-31T09:20:18;101458.28;;;13.23;100.00
48553;BME280;34335;51.566;6.994;2022-10-31T09:22:44;101453.97;;;13.56;100.00
48553;BME280;34335;51.566;6.994;2022-10-31T09:25:09;101463.56;;;13.46;100.00
48553;BME280;34335;51.566;6.994;2022-10-31T09:27:34;101454.81;;;13.55;100.00
48553;BME280;34335;51.566;6.994;2022-10-31T09:30:00;101448.69;;;13.78;100.00
48553;BME280;34335;51.566;6.994;2022-10-31T09:32:25;101450.38;;;13.97;100.00
48553;BME280;34335;51.566;6.994;2022-10-31T09:34:50;101448.66;;;13.93;100.00
48553;BME280;34335;51.566;6.994;2022-10-31T09:37:16;101434.63;;;14.13;100.00
48553;BME280;34335;51.566;6.994;2022-10-31T09:39:41;101429.41;;;14.13;100.00
48553;BME280;34335;51.566;6.994;2022-10-31T09:45:21;101421.53;;;14.17;100.00
48553;BME280;34335;51.566;6.994;2022-10-31T09:50:26;101421.53;;;14.14;100.00
48553;BME280;34335;51.566;6.994;2022-10-31T09:53:11;101417.88;;;14.49;100.00
48553;BME280;34335;51.566;6.994;2022-10-31T09:55:43;101416.03;;;14.64;100.00
48553;BME280;34335;51.566;6.994;2022-10-31T09:58:16;101416.06;;;14.59;100.00
48553;BME280;34335;51.566;6.994;2022-10-31T10:00:43;101416.94;;;14.69;100.00
48553;BME280;34335;51.566;6.994;2022-10-31T10:03:27;101417.63;;;14.93;100.00
48553;BME280;34335;51.566;6.994;2022-10-31T10:06:14;101415.88;;;14.92;100.00
48553;BME280;34335;51.566;6.994;2022-10-31T10:08:40;101416.66;;;15.06;100.00
48553;BME280;34335;51.566;6.994;2022-10-31T10:11:33;101410.75;;;14.76;100.00
48553;BME280;34335;51.566;6.994;2022-10-31T10:14:16;101402.94;;;14.75;100.00
48553;BME280;34335;51.566;6.994;2022-10-31T10:17:08;101406.47;;;14.61;100.00
48553;BME280;34335;51.566;6.994;2022-10-31T10:22:41;101393.34;;;14.71;100.00
48553;BME280;34335;51.566;6.994;2022-10-31T10:30:17;101393.91;;;15.13;100.00
48553;BME280;34335;51.566;6.994;2022-10-31T10:32:47;101392.91;;;15.25;100.00
48553;BME280;34335;51.566;6.994;2022-10-31T10:35:24;101387.72;;;15.20;99.51
48553;BME280;34335;51.566;6.994;2022-10-31T10:37:55;101384.63;;;15.64;99.83
48553;BME280;34335;51.566;6.994;2022-10-31T10:40:25;101383.91;;;15.51;99.07
48553;BME280;34335;51.566;6.994;2022-10-31T10:48:45;101369.63;;;15.78;98.64
48553;BME280;34335;51.566;6.994;2022-10-31T10:51:35;101358.38;;;15.67;98.46
48553;BME280;34335;51.566;6.994;2022-10-31T10:59:34;101348.25;;;16.11;97.29
48553;BME280;34335;51.566;6.994;2022-10-31T11:02:00;101343.09;;;16.04;97.12
48553;BME280;34335;51.566;6.994;2022-10-31T11:04:31;101338.66;;;16.07;96.94
48553;BME280;34335;51.566;6.994;2022-10-31T11:07:08;101334.38;;;16.02;96.66
48553;BME280;34335;51.566;6.994;2022-10-31T11:09:35;101326.41;;;16.10;96.68
48553;BME280;34335;51.566;6.994;2022-10-31T11:12:09;101322.88;;;16.11;96.91
48553;BME280;34335;51.566;6.994;2022-10-31T11:14:44;101316.63;;;16.20;96.32
48553;BME280;34335;51.566;6.994;2022-10-31T11:17:19;101312.06;;;16.33;96.16
48553;BME280;34335;51.566;6.994;2022-10-31T11:19:45;101297.13;;;16.38;95.63
48553;BME280;34335;51.566;6.994;2022-10-31T11:22:17;101293.63;;;16.39;95.43
48553;BME280;34335;51.566;6.994;2022-10-31T11:24:43;101292.53;;;16.51;95.51
48553;BME280;34335;51.566;6.994;2022-10-31T11:27:14;101287.19;;;16.59;94.83
48553;BME280;34335;51.566;6.994;2022-10-31T11:29:39;101285.56;;;16.50;94.98
48553;BME280;34335;51.566;6.994;2022-10-31T11:32:05;101278.34;;;16.63;93.82
48553;BME280;34335;51.566;6.994;2022-10-31T11:34:37;101267.19;;;16.50;94.10
48553;BME280;34335;51.566;6.994;2022-10-31T11:37:13;101262.63;;;16.60;93.94
48553;BME280;34335;51.566;6.994;2022-10-31T11:39:41;101265.94;;;16.71;94.27
48553;BME280;34335;51.566;6.994;2022-10-31T11:42:08;101251.75;;;16.81;92.91
48553;BME280;34335;51.566;6.994;2022-10-31T11:44:34;101253.31;;;16.92;93.97
48553;BME280;34335;51.566;6.994;2022-10-31T14:23:53;100981.69;;;18.96;84.87
48553;BME280;34335;51.566;6.994;2022-10-31T14:26:30;100973.63;;;19.00;84.50
48553;BME280;34335;51.566;6.994;2022-10-31T14:29:02;100968.69;;;18.90;85.01
48553;BME280;34335;51.566;6.994;2022-10-31T14:34:34;100979.66;;;19.06;84.07
48553;BME280;34335;51.566;6.994;2022-10-31T14:37:41;100978.88;;;19.02;84.19
48553;BME280;34335;51.566;6.994;2022-10-31T14:46:02;100959.69;;;18.97;84.03
48553;BME280;34335;51.566;6.994;2022-10-31T14:51:19;100956.13;;;18.99;84.60
48553;BME280;34335;51.566;6.994;2022-10-31T14:53:49;100945.88;;;18.89;84.58
48553;BME280;34335;51.566;6.994;2022-10-31T14:56:23;100944.66;;;18.72;83.41
48553;BME280;34335;51.566;6.994;2022-10-31T14:58:50;100946.03;;;18.84;85.12
48553;BME280;34335;51.566;6.994;2022-10-31T15:01:23;100949.53;;;18.56;84.67
48553;BME280;34335;51.566;6.994;2022-10-31T15:03:49;100948.00;;;18.77;85.57
48553;BME280;34335;51.566;6.994;2022-10-31T15:06:19;100943.97;;;18.65;84.40
48553;BME280;34335;51.566;6.994;2022-10-31T15:08:48;100927.97;;;18.72;85.60
48553;BME280;34335;51.566;6.994;2022-10-31T15:11:19;100928.09;;;18.68;85.42
48553;BME280;34335;51.566;6.994;2022-10-31T15:13:56;100926.66;;;18.58;85.70
48553;BME280;34335;51.566;6.994;2022-10-31T15:16:25;100911.81;;;18.56;86.28
48553;BME280;34335;51.566;6.994;2022-10-31T15:19:12;100916.94;;;18.60;86.01
48553;BME280;34335;51.566;6.994;2022-10-31T15:21:43;100915.34;;;18.55;85.48
48553;BME280;34335;51.566;6.994;2022-10-31T15:24:12;100908.00;;;18.64;85.83
48553;BME280;34335;51.566;6.994;2022-10-31T15:26:44;100899.44;;;18.58;85.87
48553;BME280;34335;51.566;6.994;2022-10-31T15:29:15;100885.66;;;18.49;86.09
48553;BME280;34335;51.566;6.994;2022-10-31T15:31:51;100885.09;;;18.40;86.38
48553;BME280;34335;51.566;6.994;2022-10-31T15:34:21;100885.91;;;18.42;85.99
48553;BME280;34335;51.566;6.994;2022-10-31T15:36:48;100893.81;;;18.42;86.26
48553;BME280;34335;51.566;6.994;2022-10-31T15:39:15;100884.97;;;18.43;86.17
48553;BME280;34335;51.566;6.994;2022-10-31T15:41:55;100882.53;;;18.36;86.47
48553;BME280;34335;51.566;6.994;2022-10-31T15:44:30;100877.59;;;18.26;86.91
48553;BME280;34335;51.566;6.994;2022-10-31T15:49:32;100865.72;;;18.12;87.17
48553;BME280;34335;51.566;6.994;2022-10-31T15:52:14;100871.03;;;18.11;87.54
48553;BME280;34335;51.566;6.994;2022-10-31T15:54:48;100866.06;;;18.00;87.71
48553;BME280;34335;51.566;6.994;2022-10-31T15:57:14;100867.25;;;17.88;88.39
48553;BME280;34335;51.566;6.994;2022-10-31T15:59:42;100868.69;;;18.00;88.10
48553;BME280;34335;51.566;6.994;2022-10-31T16:02:11;100875.81;;;17.96;88.01
48553;BME280;34335;51.566;6.994;2022-10-31T16:04:48;100876.91;;;17.56;89.80
48553;BME280;34335;51.566;6.994;2022-10-31T16:07:16;100876.66;;;17.65;90.10
48553;BME280;34335;51.566;6.994;2022-10-31T16:09:59;100868.88;;;17.62;89.44
48553;BME280;34335;51.566;6.994;2022-10-31T16:12:43;100856.38;;;17.70;89.14
48553;BME280;34335;51.566;6.994;2022-10-31T16:15:15;100851.38;;;17.61;89.76
48553;BME280;34335;51.566;6.994;2022-10-31T16:17:43;100850.34;;;17.65;89.30
48553;BME280;34335;51.566;6.994;2022-10-31T16:20:20;100845.34;;;17.56;89.65
48553;BME280;34335;51.566;6.994;2022-10-31T16:22:49;100847.66;;;17.37;90.91
48553;BME280;34335;51.566;6.994;2022-10-31T16:25:27;100848.31;;;17.10;92.09
48553;BME280;34335;51.566;6.994;2022-10-31T16:27:59;100835.94;;;17.16;91.83
48553;BME280;34335;51.566;6.994;2022-10-31T16:30:46;100835.50;;;16.98;92.72
48553;BME280;34335;51.566;6.994;2022-10-31T16:33:31;100835.97;;;17.14;91.75